Terminal Aerodrome Forecast
Issued by NWS

Home | Current Version | Previous Version | Graphics & Text | Print | Product List | Glossary On
Versions: 1 2 3 4 5 6 7 8 9 10 11 12 13 14 15 16
000
FTUS41 KCLE 270500
TAFFDY
TAF
KFDY 270528Z 2706/2806 20008KT P6SM OVC035
     FM270730 19010KT P6SM OVC030
     FM271200 18010KT P6SM OVC050
     FM271800 20010G20KT 6SM -RA OVC020
     FM272200 22010G20KT 6SM HZ OVC010
     FM280400 29010G15KT P6SM OVC025=

USA.gov is the U.S. government's official web portal to all federal, state and local government web resources and services.